Time;durP1;ratioP1;P1;durP2;ratioP2;P2;SDS_P1;SDS_P2;PMS_P1;PMS_P2;Temp;Humidity;BMP_temperature;BMP_pressure;BME280_temperature;BME280_humidity;BME280_pressure;Samples;Min_cycle;Max_cycle;Signal;HPM_P1;HPM_P2
2021/09/14 00:01:39;;;;;;;6.38;5.40;;;18.70;99.90;;;;;;5071925;28;20204;-74
2021/09/14 00:04:05;;;;;;;6.22;4.90;;;18.80;99.90;;;;;;5071986;28;20285;-76
2021/09/14 00:06:38;;;;;;;5.43;4.93;;;18.80;99.90;;;;;;5071401;28;20724;-74
2021/09/14 00:09:05;;;;;;;5.68;5.18;;;18.80;99.90;;;;;;5071938;28;20211;-73
2021/09/14 00:11:32;;;;;;;6.53;5.75;;;18.80;99.90;;;;;;5071737;28;20238;-74
2021/09/14 00:13:58;;;;;;;6.95;6.25;;;18.70;99.90;;;;;;5071700;28;20213;-74
2021/09/14 00:16:27;;;;;;;5.80;4.60;;;18.60;99.90;;;;;;5071392;28;20705;-73
2021/09/14 00:18:53;;;;;;;7.20;5.80;;;18.60;99.90;;;;;;5071814;28;20234;-73
2021/09/14 00:21:20;;;;;;;5.55;5.00;;;18.60;99.90;;;;;;5073224;28;20286;-75
2021/09/14 00:23:47;;;;;;;5.20;4.70;;;18.70;99.90;;;;;;5075452;28;20198;-75
2021/09/14 00:26:14;;;;;;;6.15;5.55;;;18.70;99.90;;;;;;5074947;28;20296;-75
2021/09/14 00:28:41;;;;;;;5.93;5.32;;;18.70;99.90;;;;;;5075332;28;20373;-74
2021/09/14 00:31:08;;;;;;;6.18;5.57;;;18.80;99.90;;;;;;5075574;28;20207;-75
2021/09/14 00:33:36;;;;;;;6.57;5.80;;;18.70;99.90;;;;;;5075354;28;20279;-74
2021/09/14 00:36:03;;;;;;;5.97;5.40;;;18.80;99.90;;;;;;5074979;28;20227;-75
2021/09/14 00:38:30;;;;;;;5.60;5.00;;;18.70;99.90;;;;;;5075137;28;20211;-74
2021/09/14 00:40:57;;;;;;;6.20;4.90;;;18.60;99.90;;;;;;5074899;28;20209;-74
2021/09/14 00:43:25;;;;;;;5.60;5.00;;;18.70;99.90;;;;;;5075229;28;20552;-74
2021/09/14 00:45:52;;;;;;;5.65;5.15;;;18.70;99.90;;;;;;5074824;28;20280;-75
2021/09/14 00:48:19;;;;;;;6.25;5.65;;;18.70;99.90;;;;;;5075083;28;20207;-75
2021/09/14 00:50:48;;;;;;;6.28;5.40;;;18.70;99.90;;;;;;5075106;28;20637;-72
2021/09/14 00:53:16;;;;;;;5.55;5.05;;;18.80;99.90;;;;;;5074921;28;20297;-75
2021/09/14 00:55:43;;;;;;;8.90;5.30;;;18.80;99.90;;;;;;5074576;28;20214;-74
2021/09/14 00:58:10;;;;;;;6.80;5.60;;;18.80;99.90;;;;;;5074976;28;20202;-75
2021/09/14 01:00:37;;;;;;;6.20;5.60;;;18.80;99.90;;;;;;5074817;28;20547;-74
2021/09/14 01:03:04;;;;;;;5.85;5.32;;;18.70;99.90;;;;;;5074972;28;20207;-74
2021/09/14 01:05:31;;;;;;;5.55;5.05;;;18.70;99.90;;;;;;5074553;28;20294;-74
2021/09/14 01:08:01;;;;;;;6.57;5.90;;;18.70;99.90;;;;;;5074470;28;20231;-73
2021/09/14 01:10:29;;;;;;;6.05;5.45;;;18.70;99.90;;;;;;5074747;28;20211;-72
2021/09/14 01:12:56;;;;;;;5.03;4.53;;;18.60;99.90;;;;;;5074688;28;20677;-72
2021/09/14 01:15:24;;;;;;;6.15;5.20;;;18.70;99.90;;;;;;5074468;28;20631;-75
2021/09/14 01:17:51;;;;;;;6.10;5.50;;;18.70;99.90;;;;;;5074390;28;20700;-75
2021/09/14 01:20:18;;;;;;;6.40;5.20;;;18.70;99.90;;;;;;5074369;28;20445;-75
2021/09/14 01:22:47;;;;;;;7.05;5.90;;;18.60;99.90;;;;;;5074415;28;20455;-76
2021/09/14 01:25:19;;;;;;;6.20;5.43;;;18.60;99.90;;;;;;5074178;28;20735;-76
2021/09/14 01:27:46;;;;;;;5.75;5.18;;;18.60;99.90;;;;;;5074017;28;20495;-74
2021/09/14 01:30:18;;;;;;;6.80;5.40;;;18.70;99.90;;;;;;5074158;28;20206;-74
2021/09/14 01:32:45;;;;;;;6.97;6.10;;;18.60;99.90;;;;;;5074181;28;20922;-75
2021/09/14 01:35:16;;;;;;;7.57;5.35;;;18.50;99.90;;;;;;5073839;28;20294;-75
2021/09/14 01:37:43;;;;;;;6.50;5.90;;;18.40;99.90;;;;;;5074238;28;20310;-74
2021/09/14 01:40:12;;;;;;;6.50;5.70;;;18.40;99.90;;;;;;5073935;28;20238;-74
2021/09/14 01:42:39;;;;;;;6.15;5.30;;;18.40;99.90;;;;;;5073997;28;20687;-75
2021/09/14 01:45:07;;;;;;;6.43;5.82;;;18.40;99.90;;;;;;5073953;28;20310;-75
2021/09/14 01:47:34;;;;;;;7.47;5.50;;;18.40;99.90;;;;;;5073666;28;20225;-75
2021/09/14 01:50:01;;;;;;;6.03;5.43;;;18.40;99.90;;;;;;5074003;28;20231;-75
2021/09/14 01:52:28;;;;;;;6.43;5.82;;;18.30;99.90;;;;;;5074109;28;20202;-76
2021/09/14 01:54:55;;;;;;;6.60;5.43;;;18.30;99.90;;;;;;5073881;28;20202;-75
2021/09/14 01:57:27;;;;;;;6.57;5.40;;;18.20;99.90;;;;;;5075891;28;20464;-72
2021/09/14 01:59:55;;;;;;;6.32;5.55;;;18.20;99.90;;;;;;5075710;28;20552;-72
2021/09/14 02:02:30;;;;;;;5.88;5.15;;;18.20;99.90;;;;;;5075241;28;20290;-73
2021/09/14 02:05:00;;;;;;;5.97;5.38;;;18.20;99.90;;;;;;5075111;28;20237;-73
2021/09/14 02:24:10;;;;;;;6.25;5.30;;;18.10;99.90;;;;;;5074627;28;20244;-73
2021/09/14 02:43:24;;;;;;;7.03;5.93;;;17.90;99.90;;;;;;5074254;28;20245;-73
2021/09/14 02:59:35;;;;;;;5.88;5.28;;;17.80;99.90;;;;;;5040367;28;20238;-73
2021/09/14 03:02:04;;;;;;;6.90;5.90;;;17.70;99.90;;;;;;5074387;28;20298;-73
2021/09/14 03:04:31;;;;;;;6.30;4.63;;;17.70;99.90;;;;;;5074437;28;20199;-73
2021/09/14 03:06:58;;;;;;;7.10;5.90;;;17.60;99.90;;;;;;5073446;28;20317;-72
2021/09/14 03:09:25;;;;;;;6.53;5.72;;;17.60;99.90;;;;;;5074476;28;20217;-72
2021/09/14 03:11:52;;;;;;;6.25;5.18;;;17.60;99.90;;;;;;5073722;28;20293;-72
2021/09/14 03:14:19;;;;;;;7.70;5.07;;;17.60;99.90;;;;;;5074478;28;20602;-72
2021/09/14 03:16:45;;;;;;;5.35;4.80;;;17.70;99.90;;;;;;5073566;28;20214;-72
2021/09/14 03:19:14;;;;;;;5.45;4.95;;;17.80;99.90;;;;;;5074529;28;20298;-72
2021/09/14 03:21:40;;;;;;;5.90;5.10;;;17.70;99.90;;;;;;5073882;28;20228;-72
2021/09/14 03:24:07;;;;;;;6.85;6.20;;;17.80;99.90;;;;;;5073938;28;20202;-72
2021/09/14 03:26:34;;;;;;;7.28;5.97;;;17.80;99.90;;;;;;5073802;28;20317;-72
2021/09/14 03:29:01;;;;;;;5.75;5.00;;;17.80;99.90;;;;;;5073953;28;20565;-72
2021/09/14 03:31:28;;;;;;;7.53;6.22;;;17.80;99.90;;;;;;5073987;28;20202;-72
2021/09/14 03:33:56;;;;;;;6.45;5.40;;;17.80;99.90;;;;;;5074108;28;20238;-72
2021/09/14 03:36:24;;;;;;;5.97;5.35;;;17.90;99.90;;;;;;5073285;28;20249;-72
2021/09/14 03:38:51;;;;;;;7.57;6.13;;;17.80;99.90;;;;;;5073783;28;20293;-72
2021/09/14 03:41:18;;;;;;;6.32;5.70;;;17.80;99.90;;;;;;5073878;28;20289;-72
2021/09/14 03:43:45;;;;;;;7.07;5.65;;;17.80;99.90;;;;;;5073367;28;20309;-72
2021/09/14 03:46:11;;;;;;;5.55;5.05;;;17.80;99.90;;;;;;5073174;28;20229;-73
2021/09/14 03:48:38;;;;;;;7.50;6.20;;;17.70;99.90;;;;;;5073570;28;20289;-72
2021/09/14 03:51:05;;;;;;;6.75;6.00;;;17.70;99.90;;;;;;5073436;28;20301;-72
2021/09/14 03:53:33;;;;;;;7.03;5.93;;;17.60;99.90;;;;;;5073724;28;20545;-72
2021/09/14 03:56:00;;;;;;;5.93;5.30;;;17.60;99.90;;;;;;5073929;28;20228;-72
2021/09/14 03:58:27;;;;;;;5.80;5.20;;;17.70;99.90;;;;;;5078239;28;20233;-72
2021/09/14 04:00:54;;;;;;;5.38;4.75;;;17.70;99.90;;;;;;5077961;28;20245;-72
2021/09/14 04:03:25;;;;;;;8.75;6.45;;;17.60;99.90;;;;;;5077495;28;20199;-72
2021/09/14 04:08:52;;;;;;;6.70;5.40;;;17.60;99.90;;;;;;5043315;28;20265;-72
2021/09/14 04:11:21;;;;;;;8.70;6.00;;;17.50;99.90;;;;;;5077784;28;20202;-72
2021/09/14 04:13:48;;;;;;;7.32;6.43;;;17.50;99.90;;;;;;5077314;28;20207;-72
2021/09/14 04:16:15;;;;;;;6.38;4.90;;;17.50;99.90;;;;;;5076946;28;20226;-72
2021/09/14 04:18:42;;;;;;;6.35;5.75;;;17.60;99.90;;;;;;5077453;28;20291;-72
2021/09/14 04:21:09;;;;;;;6.15;5.55;;;17.60;99.90;;;;;;5077426;28;20301;-72
2021/09/14 04:23:36;;;;;;;7.00;6.30;;;17.60;99.90;;;;;;5076943;28;20209;-72
2021/09/14 04:26:04;;;;;;;7.38;5.88;;;17.60;99.90;;;;;;5076925;28;20318;-72
2021/09/14 04:28:31;;;;;;;6.60;5.95;;;17.70;99.90;;;;;;5077007;28;20572;-72
2021/09/14 04:30:58;;;;;;;6.50;5.82;;;17.60;99.90;;;;;;5077135;28;20203;-72
2021/09/14 04:33:25;;;;;;;6.65;5.80;;;17.50;99.90;;;;;;5076759;28;20289;-72
2021/09/14 04:35:52;;;;;;;6.40;5.80;;;17.50;99.90;;;;;;5076566;28;20313;-72
2021/09/14 04:38:19;;;;;;;6.65;5.38;;;17.50;99.90;;;;;;5077485;28;20230;-71
2021/09/14 04:40:46;;;;;;;6.28;5.55;;;17.50;99.90;;;;;;5076727;28;20202;-72
2021/09/14 04:43:14;;;;;;;6.72;5.05;;;17.50;99.90;;;;;;5076323;28;20298;-72
2021/09/14 04:45:41;;;;;;;6.78;5.40;;;17.50;99.90;;;;;;5076654;28;20203;-72
2021/09/14 04:48:10;;;;;;;6.82;5.38;;;17.40;99.90;;;;;;5076843;28;20233;-72
2021/09/14 04:50:37;;;;;;;6.65;5.70;;;17.20;99.90;;;;;;5076972;28;20210;-72
2021/09/14 04:53:03;;;;;;;6.15;5.55;;;17.10;99.90;;;;;;5076980;28;20289;-71
2021/09/14 04:55:30;;;;;;;6.15;5.55;;;17.10;99.90;;;;;;5076301;28;20301;-72
2021/09/14 04:57:57;;;;;;;6.18;5.57;;;17.10;99.90;;;;;;5076427;28;20199;-71
2021/09/14 05:00:26;;;;;;;6.78;6.05;;;17.20;99.90;;;;;;5076646;28;20293;-71
2021/09/14 05:02:53;;;;;;;6.20;5.60;;;17.20;99.90;;;;;;5076692;28;20273;-71
2021/09/14 05:05:20;;;;;;;7.38;6.22;;;17.20;99.90;;;;;;5076074;28;20198;-72
2021/09/14 05:07:47;;;;;;;6.40;5.80;;;17.30;99.90;;;;;;5075582;28;20600;-71
2021/09/14 05:10:14;;;;;;;6.65;5.60;;;17.30;99.90;;;;;;5076082;28;20225;-72
2021/09/14 05:12:40;;;;;;;8.20;6.78;;;17.30;99.90;;;;;;5076178;28;20206;-73
2021/09/14 05:15:09;;;;;;;8.05;5.80;;;17.30;99.90;;;;;;5076036;28;20661;-71
2021/09/14 05:17:37;;;;;;;6.70;5.75;;;17.30;99.90;;;;;;5075745;28;20227;-72
2021/09/14 05:20:05;;;;;;;6.88;6.18;;;17.30;99.90;;;;;;5076378;28;20285;-72
2021/09/14 05:22:32;;;;;;;6.22;5.45;;;17.30;99.90;;;;;;5075678;28;20260;-72
2021/09/14 05:24:59;;;;;;;7.05;6.22;;;17.30;99.90;;;;;;5075854;28;20214;-72
2021/09/14 05:27:26;;;;;;;8.13;6.00;;;17.30;99.90;;;;;;5075889;28;20693;-72
2021/09/14 05:29:53;;;;;;;5.93;5.22;;;17.30;99.90;;;;;;5076208;28;20526;-72
2021/09/14 05:32:20;;;;;;;7.70;6.40;;;17.30;99.90;;;;;;5076193;28;20234;-72
2021/09/14 05:34:49;;;;;;;6.70;6.00;;;17.30;99.90;;;;;;5075972;28;20298;-72
2021/09/14 05:37:17;;;;;;;6.25;5.65;;;17.40;99.90;;;;;;5075921;28;20537;-71
2021/09/14 05:39:44;;;;;;;6.28;5.68;;;17.40;99.90;;;;;;5075892;28;20599;-72
2021/09/14 05:42:11;;;;;;;6.72;5.82;;;17.40;99.90;;;;;;5075906;28;20199;-72
2021/09/14 05:44:38;;;;;;;7.35;5.97;;;17.50;99.90;;;;;;5075764;28;20657;-72
2021/09/14 05:47:05;;;;;;;9.00;6.00;;;17.50;99.90;;;;;;5075132;28;20223;-72
2021/09/14 05:49:32;;;;;;;7.03;6.32;;;17.50;99.90;;;;;;5075980;28;20210;-72
2021/09/14 05:52:01;;;;;;;8.05;6.72;;;17.50;99.90;;;;;;5075577;28;20228;-72
2021/09/14 05:54:28;;;;;;;8.15;7.05;;;17.50;99.90;;;;;;5075566;28;20199;-72
2021/09/14 05:56:55;;;;;;;9.90;6.70;;;17.50;99.90;;;;;;5074959;28;20316;-72
2021/09/14 05:59:21;;;;;;;7.40;5.97;;;17.60;99.90;;;;;;5075942;28;20203;-72
2021/09/14 06:01:48;;;;;;;8.02;7.22;;;17.50;99.90;;;;;;5075649;28;20290;-72
2021/09/14 06:04:15;;;;;;;7.10;6.40;;;17.50;99.90;;;;;;5075269;28;20297;-72
2021/09/14 06:06:42;;;;;;;9.57;6.70;;;17.50;99.90;;;;;;5075214;28;20313;-72
2021/09/14 06:09:10;;;;;;;8.60;6.43;;;17.60;99.90;;;;;;5075076;28;20313;-72
2021/09/14 06:11:37;;;;;;;7.95;6.95;;;17.60;99.90;;;;;;5075244;28;20215;-72
2021/09/14 06:14:04;;;;;;;8.35;7.15;;;17.70;99.90;;;;;;5075398;28;20246;-72
2021/09/14 06:16:31;;;;;;;11.65;7.10;;;17.70;99.90;;;;;;5074484;28;20700;-72
2021/09/14 06:18:57;;;;;;;7.93;6.78;;;17.70;99.90;;;;;;5074357;28;20195;-72
2021/09/14 06:21:24;;;;;;;8.20;7.25;;;17.80;99.90;;;;;;5074831;28;20243;-72
2021/09/14 06:23:51;;;;;;;8.70;7.20;;;17.80;99.90;;;;;;5075054;28;20209;-72
2021/09/14 06:26:19;;;;;;;8.88;7.28;;;17.80;99.90;;;;;;5074225;28;20226;-72
2021/09/14 06:28:46;;;;;;;8.65;7.43;;;17.90;99.90;;;;;;5075288;28;20218;-72
2021/09/14 06:31:14;;;;;;;8.90;7.10;;;17.90;99.90;;;;;;5074404;28;20290;-72
2021/09/14 06:33:41;;;;;;;7.85;7.05;;;18.00;99.90;;;;;;5074762;28;20558;-72
2021/09/14 06:36:07;;;;;;;9.52;7.90;;;18.10;99.90;;;;;;5074170;28;20219;-72
2021/09/14 06:38:34;;;;;;;8.68;7.72;;;18.10;99.90;;;;;;5075039;28;20289;-72
2021/09/14 06:41:01;;;;;;;9.05;7.60;;;18.20;99.90;;;;;;5074767;28;20206;-72
2021/09/14 06:43:29;;;;;;;10.30;7.05;;;18.20;99.90;;;;;;5074449;28;20302;-72
2021/09/14 06:45:56;;;;;;;8.25;7.05;;;18.10;99.90;;;;;;5073858;28;20306;-72
2021/09/14 06:48:23;;;;;;;8.10;6.40;;;18.10;99.90;;;;;;5074360;28;20257;-72
2021/09/14 06:50:50;;;;;;;8.10;7.30;;;18.20;99.90;;;;;;5074521;28;20242;-72
2021/09/14 06:53:17;;;;;;;9.32;7.25;;;18.20;99.90;;;;;;5074574;28;20207;-72
2021/09/14 06:55:44;;;;;;;8.60;7.70;;;18.30;99.90;;;;;;5074040;28;20206;-71
2021/09/14 06:58:11;;;;;;;7.85;7.15;;;18.30;99.90;;;;;;5074134;28;20297;-73
2021/09/14 07:00:39;;;;;;;11.00;8.35;;;18.40;99.90;;;;;;5058858;28;20216;-72
2021/09/14 07:03:07;;;;;;;8.30;6.55;;;18.30;99.90;;;;;;5073155;28;20289;-73
2021/09/14 07:05:37;;;;;;;9.03;6.90;;;18.40;99.90;;;;;;5072487;28;20578;-73
2021/09/14 07:08:03;;;;;;;8.50;7.00;;;18.40;99.90;;;;;;5072709;28;20567;-72
2021/09/14 07:10:30;;;;;;;10.93;7.40;;;18.40;99.90;;;;;;5072369;28;20437;-73
2021/09/14 07:12:57;;;;;;;9.63;6.80;;;18.50;99.90;;;;;;5072512;28;20618;-72
2021/09/14 07:15:24;;;;;;;7.95;6.97;;;18.60;99.90;;;;;;5072442;28;20213;-73
2021/09/14 07:17:52;;;;;;;8.18;7.38;;;18.70;99.90;;;;;;5072678;28;20301;-72
2021/09/14 07:20:19;;;;;;;7.13;6.40;;;18.80;99.90;;;;;;5072416;28;20294;-73
2021/09/14 07:22:46;;;;;;;6.78;6.15;;;18.80;99.90;;;;;;5072286;28;20869;-72
2021/09/14 07:25:13;;;;;;;7.70;6.75;;;18.80;99.90;;;;;;5072114;28;20297;-73
2021/09/14 07:27:40;;;;;;;7.30;6.60;;;18.80;99.90;;;;;;5072489;28;20649;-73
2021/09/14 07:30:08;;;;;;;7.70;6.25;;;18.80;99.90;;;;;;5072217;28;20445;-74
2021/09/14 07:32:34;;;;;;;7.38;6.50;;;18.80;99.90;;;;;;5072177;28;20203;-73
2021/09/14 07:35:03;;;;;;;7.68;6.70;;;18.70;99.90;;;;;;5072093;28;20296;-72
2021/09/14 07:37:30;;;;;;;7.38;6.60;;;18.80;99.90;;;;;;5072222;28;20245;-73
2021/09/14 07:39:56;;;;;;;7.20;6.20;;;18.80;99.90;;;;;;5072125;28;20214;-72
2021/09/14 07:42:23;;;;;;;9.05;7.22;;;18.90;99.90;;;;;;5072274;28;20477;-73
2021/09/14 07:44:50;;;;;;;6.80;6.10;;;18.90;99.90;;;;;;5071936;28;20218;-73
2021/09/14 07:47:18;;;;;;;9.20;7.32;;;18.90;99.90;;;;;;5072207;28;20221;-73
2021/09/14 07:49:46;;;;;;;7.93;6.70;;;19.00;99.90;;;;;;5072283;28;20227;-72
2021/09/14 07:52:15;;;;;;;6.20;5.60;;;19.10;99.90;;;;;;5071885;28;20458;-73
2021/09/14 07:54:42;;;;;;;8.00;6.50;;;19.10;99.90;;;;;;5071893;28;20537;-72
2021/09/14 07:57:08;;;;;;;7.40;6.60;;;19.20;99.90;;;;;;5072117;28;20501;-72
2021/09/14 07:59:35;;;;;;;7.10;6.40;;;19.40;99.90;;;;;;5072281;28;20479;-73
2021/09/14 08:02:03;;;;;;;7.30;6.50;;;19.40;99.90;;;;;;5072160;28;20453;-73
2021/09/14 08:04:29;;;;;;;7.53;6.60;;;19.50;99.90;;;;;;5071773;28;20447;-73
2021/09/14 08:06:56;;;;;;;7.00;6.40;;;19.60;99.90;;;;;;5071904;28;20505;-72
2021/09/14 08:09:28;;;;;;;7.63;6.80;;;19.70;99.90;;;;;;5072288;28;20895;-72
2021/09/14 08:11:55;;;;;;;7.80;6.70;;;19.70;99.90;;;;;;5073565;28;20443;-72
2021/09/14 08:14:22;;;;;;;16.00;6.93;;;19.70;99.90;;;;;;5073617;28;20781;-72
2021/09/14 08:16:49;;;;;;;8.00;7.20;;;19.70;99.90;;;;;;5072887;28;20550;-71
2021/09/14 08:19:15;;;;;;;9.53;7.27;;;19.70;99.90;;;;;;5073937;28;20541;-72
2021/09/14 08:21:42;;;;;;;7.67;6.87;;;19.80;99.90;;;;;;5073354;28;20529;-72
2021/09/14 08:24:11;;;;;;;7.00;6.30;;;19.90;99.90;;;;;;5073697;28;20864;-72
2021/09/14 08:26:40;;;;;;;10.67;6.63;;;19.90;99.90;;;;;;5072784;28;20488;-71
2021/09/14 08:29:07;;;;;;;7.50;6.23;;;19.90;99.90;;;;;;5073309;28;20983;-72
2021/09/14 08:31:34;;;;;;;7.23;6.53;;;20.00;99.90;;;;;;5073171;28;20849;-72
2021/09/14 08:34:01;;;;;;;6.60;5.90;;;20.10;99.90;;;;;;5073057;28;20454;-71
2021/09/14 08:36:28;;;;;;;7.47;6.10;;;20.10;99.90;;;;;;5072878;28;20471;-72
2021/09/14 08:38:55;;;;;;;6.87;6.17;;;20.30;99.90;;;;;;5073304;28;20558;-72
2021/09/14 08:41:22;;;;;;;6.57;5.87;;;20.30;99.90;;;;;;5073368;28;20441;-72
2021/09/14 08:43:52;;;;;;;7.10;6.40;;;20.30;99.90;;;;;;5076546;28;20837;-72
2021/09/14 08:46:20;;;;;;;7.70;6.23;;;20.40;99.90;;;;;;5076294;28;20555;-72
2021/09/14 08:48:48;;;;;;;6.40;5.80;;;20.50;99.90;;;;;;5076368;28;20996;-71
2021/09/14 08:51:15;;;;;;;6.27;5.60;;;20.60;99.90;;;;;;5076731;28;20447;-71
2021/09/14 08:53:42;;;;;;;8.13;6.03;;;20.80;99.90;;;;;;5076628;28;20929;-71
2021/09/14 08:56:10;;;;;;;6.57;5.93;;;20.90;99.90;;;;;;5076138;28;20460;-71
2021/09/14 08:58:38;;;;;;;5.83;5.10;;;21.00;99.90;;;;;;5076797;28;20945;-72
2021/09/14 09:01:10;;;;;;;6.23;5.50;;;21.20;99.90;;;;;;5076867;28;20505;-72
2021/09/14 09:03:38;;;;;;;5.67;5.17;;;21.30;99.90;;;;;;5076310;28;20445;-73
2021/09/14 09:06:05;;;;;;;6.37;5.57;;;21.40;99.90;;;;;;5075946;28;21009;-72
2021/09/14 09:08:32;;;;;;;5.90;5.30;;;21.50;99.90;;;;;;5076713;28;20568;-73
2021/09/14 09:11:02;;;;;;;4.90;4.40;;;21.60;99.90;;;;;;5076522;28;20476;-73
2021/09/14 09:13:31;;;;;;;5.87;5.37;;;21.70;99.90;;;;;;5076588;28;21002;-73
2021/09/14 09:15:58;;;;;;;5.43;4.93;;;21.80;99.90;;;;;;5075897;28;20884;-73
2021/09/14 09:18:27;;;;;;;5.60;5.07;;;21.90;99.90;;;;;;5076194;28;20447;-73
2021/09/14 09:21:02;;;;;;;4.80;4.40;;;22.00;99.90;;;;;;5076367;28;20471;-72
2021/09/14 09:23:29;;;;;;;5.50;5.00;;;22.10;99.90;;;;;;5076453;28;20448;-72
2021/09/14 09:26:05;;;;;;;5.63;5.07;;;22.20;99.90;;;;;;5075793;28;20476;-72
2021/09/14 09:28:32;;;;;;;6.20;5.60;;;22.30;99.90;;;;;;5076001;28;20477;-73
2021/09/14 09:31:03;;;;;;;5.10;4.70;;;22.40;99.90;;;;;;5075878;28;20528;-73
2021/09/14 09:33:32;;;;;;;5.43;4.93;;;22.50;99.90;;;;;;5076120;28;20448;-73
2021/09/14 09:36:01;;;;;;;6.03;5.43;;;22.60;99.90;;;;;;5075230;28;20553;-72
2021/09/14 09:38:28;;;;;;;5.43;4.93;;;22.70;99.90;;;;;;5076427;28;20447;-73
2021/09/14 09:40:55;;;;;;;5.20;4.70;;;22.80;99.90;;;;;;5075818;28;20465;-73
2021/09/14 09:43:29;;;;;;;5.53;5.03;;;22.90;99.90;;;;;;5075466;28;20457;-73
2021/09/14 09:46:07;;;;;;;6.87;4.83;;;23.00;99.90;;;;;;5075140;28;20964;-73
2021/09/14 09:48:37;;;;;;;5.77;5.17;;;23.60;99.90;;;;;;5075814;28;20510;-73
2021/09/14 09:51:05;;;;;;;5.53;5.03;;;24.10;99.90;;;;;;5075879;28;20525;-73
2021/09/14 09:53:33;;;;;;;5.50;5.00;;;24.90;99.90;;;;;;5075451;28;20443;-73
2021/09/14 09:56:02;;;;;;;5.17;4.77;;;25.50;99.90;;;;;;5075010;28;21038;-73
2021/09/14 09:58:29;;;;;;;4.90;4.50;;;25.70;99.90;;;;;;5075518;28;20961;-72
2021/09/14 10:01:01;;;;;;;5.27;4.80;;;25.60;99.90;;;;;;5075810;28;20444;-72
2021/09/14 10:03:30;;;;;;;5.47;4.97;;;25.40;99.90;;;;;;5074940;28;20452;-73
2021/09/14 10:06:01;;;;;;;5.37;4.87;;;25.20;99.90;;;;;;5074796;28;20465;-72
2021/09/14 10:08:29;;;;;;;5.00;4.60;;;25.40;99.90;;;;;;5075138;28;20540;-73
2021/09/14 10:10:57;;;;;;;5.50;5.00;;;25.80;99.90;;;;;;5075342;28;20540;-72
2021/09/14 10:13:32;;;;;;;5.50;5.00;;;26.20;99.90;;;;;;5075385;28;20441;-72
2021/09/14 10:15:59;;;;;;;5.07;4.63;;;26.80;99.90;;;;;;5074884;28;20822;-73
2021/09/14 10:18:28;;;;;;;5.07;4.57;;;27.70;99.90;;;;;;5075041;28;20448;-73
2021/09/14 10:20:55;;;;;;;5.50;5.00;;;29.20;97.50;;;;;;5074861;28;20449;-73
2021/09/14 10:23:24;;;;;;;5.50;5.00;;;30.30;94.40;;;;;;5074946;28;20476;-70
2021/09/14 10:26:03;;;;;;;4.80;4.40;;;31.40;92.00;;;;;;5074528;28;20823;-70
2021/09/14 10:28:43;;;;;;;5.17;4.77;;;32.20;88.20;;;;;;5075351;28;20443;-70
2021/09/14 10:31:21;;;;;;;5.23;4.83;;;32.70;81.10;;;;;;5074735;28;20754;-71
2021/09/14 10:33:48;;;;;;;10.40;8.77;;;32.90;78.20;;;;;;5074739;28;20451;-70
2021/09/14 10:36:15;;;;;;;6.00;5.50;;;32.00;80.60;;;;;;5074109;28;20467;-71
2021/09/14 10:38:49;;;;;;;5.70;5.20;;;31.40;78.80;;;;;;5074888;28;20870;-71
2021/09/14 10:41:18;;;;;;;4.77;4.47;;;30.40;81.50;;;;;;5074569;28;20444;-73
2021/09/14 10:43:55;;;;;;;5.20;4.80;;;30.10;86.10;;;;;;5074220;28;20453;-73
2021/09/14 10:46:23;;;;;;;5.10;4.70;;;29.80;87.50;;;;;;5074218;28;20465;-73
2021/09/14 10:48:52;;;;;;;5.80;5.30;;;29.50;90.80;;;;;;5074098;28;20827;-72
2021/09/14 10:51:20;;;;;;;5.13;4.63;;;29.30;90.70;;;;;;5074667;28;20475;-72
2021/09/14 10:53:55;;;;;;;5.50;5.00;;;29.40;90.10;;;;;;5074310;28;20543;-72
2021/09/14 10:56:22;;;;;;;5.50;5.00;;;29.40;88.30;;;;;;5073834;28;20469;-73
2021/09/14 10:58:49;;;;;;;4.77;4.37;;;29.50;86.80;;;;;;5074623;28;20528;-73
2021/09/14 11:01:22;;;;;;;5.83;5.30;;;29.50;87.30;;;;;;5074463;28;20440;-72
2021/09/14 11:03:51;;;;;;;5.93;5.40;;;29.70;86.60;;;;;;5074474;28;20949;-73
2021/09/14 11:06:18;;;;;;;6.20;5.60;;;30.00;86.40;;;;;;5073531;28;20555;-73
2021/09/14 11:08:46;;;;;;;5.53;5.03;;;30.80;86.50;;;;;;5074091;28;20445;-73
2021/09/14 11:11:18;;;;;;;5.57;5.07;;;31.70;82.60;;;;;;5074287;28;20448;-73
2021/09/14 11:13:44;;;;;;;6.37;5.87;;;32.30;76.80;;;;;;5074362;28;20448;-73
2021/09/14 11:16:15;;;;;;;5.83;5.27;;;32.10;76.50;;;;;;5073619;28;20538;-73
2021/09/14 11:18:42;;;;;;;6.03;5.53;;;32.00;76.10;;;;;;5073922;28;20540;-73
2021/09/14 11:21:10;;;;;;;5.20;4.80;;;31.90;77.50;;;;;;5074011;28;20543;-73
2021/09/14 11:23:39;;;;;;;5.47;4.97;;;32.00;79.20;;;;;;5074049;28;20444;-73
2021/09/14 11:26:08;;;;;;;5.63;5.23;;;32.40;80.60;;;;;;5073372;28;20475;-74
2021/09/14 11:28:37;;;;;;;5.03;4.57;;;33.20;78.50;;;;;;5074097;28;20447;-73
2021/09/14 11:31:08;;;;;;;5.70;5.20;;;33.30;74.10;;;;;;5074104;28;21001;-73
2021/09/14 11:33:37;;;;;;;5.00;4.60;;;33.70;73.40;;;;;;5073860;28;20448;-73
2021/09/14 11:36:08;;;;;;;5.30;4.90;;;33.40;73.30;;;;;;5073825;28;20469;-74
2021/09/14 11:38:35;;;;;;;5.27;4.87;;;33.10;71.20;;;;;;5074212;28;20803;-73
2021/09/14 11:41:04;;;;;;;5.20;4.80;;;32.50;73.20;;;;;;5074016;28;20447;-73
2021/09/14 11:43:34;;;;;;;5.77;5.27;;;32.00;75.00;;;;;;5073730;28;20456;-73
2021/09/14 11:46:13;;;;;;;5.90;5.33;;;31.60;78.80;;;;;;5073396;28;20568;-72
2021/09/14 11:48:41;;;;;;;5.83;5.33;;;31.20;78.60;;;;;;5073695;28;20902;-73
2021/09/14 11:51:10;;;;;;;5.87;5.37;;;30.90;78.50;;;;;;5073772;28;20518;-73
2021/09/14 11:53:38;;;;;;;6.70;6.10;;;30.70;77.80;;;;;;5073949;28;20524;-73
2021/09/14 11:56:11;;;;;;;6.30;5.70;;;30.30;82.10;;;;;;5073380;28;20559;-74
2021/09/14 11:58:41;;;;;;;5.70;5.20;;;30.10;79.70;;;;;;5073377;28;20445;-73
2021/09/14 12:01:09;;;;;;;5.37;4.90;;;29.50;83.50;;;;;;5073509;28;20799;-73
2021/09/14 12:03:38;;;;;;;5.53;5.03;;;29.10;85.20;;;;;;5073736;28;20530;-73
2021/09/14 12:06:05;;;;;;;5.77;5.27;;;28.80;86.80;;;;;;5073093;28;20505;-73
2021/09/14 12:08:33;;;;;;;7.00;6.30;;;28.40;86.90;;;;;;5074056;28;20449;-73
2021/09/14 12:11:01;;;;;;;5.73;5.23;;;28.20;90.20;;;;;;5073357;28;20513;-73
2021/09/14 12:13:35;;;;;;;6.00;5.50;;;28.10;90.70;;;;;;5073394;28;20499;-72
2021/09/14 12:16:08;;;;;;;6.83;6.10;;;28.00;90.90;;;;;;5072974;28;20467;-73
2021/09/14 12:18:38;;;;;;;6.80;6.07;;;27.80;90.80;;;;;;5077498;28;20444;-72
2021/09/14 12:21:05;;;;;;;7.00;6.30;;;27.50;90.90;;;;;;5077624;28;20440;-73
2021/09/14 12:23:32;;;;;;;6.60;6.00;;;27.20;91.90;;;;;;5077219;28;20445;-73
2021/09/14 12:25:59;;;;;;;7.50;6.80;;;26.90;93.10;;;;;;5076857;28;20545;-73
2021/09/14 12:28:26;;;;;;;6.50;5.90;;;26.60;93.70;;;;;;5077462;28;20451;-73
2021/09/14 12:30:53;;;;;;;6.67;6.07;;;26.30;94.10;;;;;;5077234;28;20480;-73
2021/09/14 12:33:20;;;;;;;5.93;5.43;;;26.20;94.90;;;;;;5077329;28;20463;-72
2021/09/14 12:35:48;;;;;;;5.77;5.27;;;26.10;95.10;;;;;;5076737;28;20614;-73
2021/09/14 12:38:15;;;;;;;6.20;5.70;;;26.10;95.70;;;;;;5077196;28;20440;-72
2021/09/14 12:40:42;;;;;;;6.93;5.80;;;26.30;96.90;;;;;;5077025;28;20534;-72
2021/09/14 12:43:08;;;;;;;6.37;5.80;;;26.30;95.10;;;;;;5076794;28;20457;-73
2021/09/14 12:45:35;;;;;;;5.60;5.10;;;26.30;94.60;;;;;;5076597;28;20473;-72
2021/09/14 12:48:02;;;;;;;6.27;5.50;;;26.30;94.30;;;;;;5077364;28;20462;-72
2021/09/14 12:50:29;;;;;;;6.10;5.50;;;26.50;94.10;;;;;;5076366;28;20479;-73
2021/09/14 12:52:57;;;;;;;6.77;6.13;;;26.70;94.20;;;;;;5076777;28;20451;-72
2021/09/14 12:55:25;;;;;;;6.10;5.60;;;26.80;93.20;;;;;;5076241;28;20445;-73
2021/09/14 12:57:52;;;;;;;6.67;6.03;;;26.80;93.20;;;;;;5077007;28;20504;-72
2021/09/14 13:00:19;;;;;;;6.10;5.53;;;26.70;93.80;;;;;;5076782;28;20528;-72
2021/09/14 13:02:46;;;;;;;6.27;5.67;;;26.50;93.00;;;;;;5076151;28;20453;-72
2021/09/14 13:05:13;;;;;;;5.63;5.13;;;26.40;94.10;;;;;;5076165;28;20472;-72
2021/09/14 13:07:39;;;;;;;7.53;5.83;;;26.30;94.50;;;;;;5076604;28;20551;-73
2021/09/14 13:10:11;;;;;;;6.00;5.10;;;26.40;93.80;;;;;;5076529;28;20479;-72
2021/09/14 13:12:38;;;;;;;6.70;6.10;;;26.50;94.40;;;;;;5076647;28;20449;-72
2021/09/14 13:17:50;;;;;;;6.43;5.83;;;26.80;94.70;;;;;;5076131;28;20444;-73
2021/09/14 13:20:17;;;;;;;6.20;5.40;;;27.10;93.60;;;;;;5076349;28;20524;-72
2021/09/14 13:22:44;;;;;;;6.37;5.77;;;27.00;92.50;;;;;;5076360;28;20445;-72
2021/09/14 13:25:13;;;;;;;6.90;6.27;;;27.00;92.20;;;;;;5076126;28;20869;-72
2021/09/14 13:27:40;;;;;;;6.30;5.70;;;27.10;93.00;;;;;;5075266;28;20552;-72
2021/09/14 13:30:08;;;;;;;5.60;5.20;;;27.20;93.40;;;;;;5075725;28;20564;-72
2021/09/14 13:32:35;;;;;;;6.13;5.63;;;27.40;93.60;;;;;;5076079;28;20472;-72
2021/09/14 13:35:01;;;;;;;7.10;6.40;;;27.50;92.40;;;;;;5075829;28;20532;-73
2021/09/14 13:37:28;;;;;;;6.67;6.07;;;27.60;92.60;;;;;;5076278;28;20557;-72
2021/09/14 13:39:55;;;;;;;7.13;6.50;;;27.70;92.20;;;;;;5076311;28;20901;-72
2021/09/14 13:42:25;;;;;;;6.17;5.60;;;27.80;92.00;;;;;;5075472;28;20540;-72